sensor_id;sensor_type;location;lat;lon;timestamp;pressure;altitude;pressure_sealevel;temperature;humidity
74893;BME280;63446;56.272;43.922;2024-01-25T00:01:47;100126.81;;;-0.34;65.85
74893;BME280;63446;56.272;43.922;2024-01-25T00:04:13;100126.81;;;-0.34;65.91
74893;BME280;63446;56.272;43.922;2024-01-25T00:06:39;100118.81;;;-0.32;65.84
74893;BME280;63446;56.272;43.922;2024-01-25T00:09:05;100117.81;;;-0.31;66.04
74893;BME280;63446;56.272;43.922;2024-01-25T00:11:31;100116.81;;;-0.30;65.95
74893;BME280;63446;56.272;43.922;2024-01-25T00:13:58;100110.84;;;-0.31;66.08
74893;BME280;63446;56.272;43.922;2024-01-25T00:16:24;100114.22;;;-0.30;66.05
74893;BME280;63446;56.272;43.922;2024-01-25T00:18:50;100116.81;;;-0.30;65.92
74893;BME280;63446;56.272;43.922;2024-01-25T00:21:16;100111.81;;;-0.32;66.04
74893;BME280;63446;56.272;43.922;2024-01-25T00:23:42;100116.81;;;-0.30;65.99
74893;BME280;63446;56.272;43.922;2024-01-25T00:26:08;100109.22;;;-0.32;65.91
74893;BME280;63446;56.272;43.922;2024-01-25T00:28:34;100106.63;;;-0.32;65.97
74893;BME280;63446;56.272;43.922;2024-01-25T00:31:00;100100.63;;;-0.32;66.12
74893;BME280;63446;56.272;43.922;2024-01-25T00:33:26;100097.25;;;-0.33;66.01
74893;BME280;63446;56.272;43.922;2024-01-25T00:35:52;100095.66;;;-0.34;66.04
74893;BME280;63446;56.272;43.922;2024-01-25T00:38:18;100106.63;;;-0.32;65.93
74893;BME280;63446;56.272;43.922;2024-01-25T00:40:45;100108.44;;;-0.32;65.91
74893;BME280;63446;56.272;43.922;2024-01-25T00:43:11;100113.44;;;-0.31;65.99
74893;BME280;63446;56.272;43.922;2024-01-25T00:45:37;100115.03;;;-0.30;65.94
74893;BME280;63446;56.272;43.922;2024-01-25T00:48:03;100096.22;;;-0.32;65.93
74893;BME280;63446;56.272;43.922;2024-01-25T00:50:30;100107.41;;;-0.31;65.98
74893;BME280;63446;56.272;43.922;2024-01-25T00:52:56;100095.44;;;-0.32;65.94
74893;BME280;63446;56.272;43.922;2024-01-25T00:55:22;100097.63;;;-0.29;66.05
74893;BME280;63446;56.272;43.922;2024-01-25T00:57:48;100108.03;;;-0.29;66.03
74893;BME280;63446;56.272;43.922;2024-01-25T01:00:14;100100.03;;;-0.28;65.92
74893;BME280;63446;56.272;43.922;2024-01-25T01:02:45;100097.25;;;-0.26;65.87
74893;BME280;63446;56.272;43.922;2024-01-25T01:05:12;100098.03;;;-0.26;66.06
74893;BME280;63446;56.272;43.922;2024-01-25T01:07:39;100087.63;;;-0.26;65.96
74893;BME280;63446;56.272;43.922;2024-01-25T01:10:08;100093.63;;;-0.25;66.11
74893;BME280;63446;56.272;43.922;2024-01-25T01:12:35;100087.41;;;-0.24;65.98
74893;BME280;63446;56.272;43.922;2024-01-25T01:15:01;100093.22;;;-0.22;65.93
74893;BME280;63446;56.272;43.922;2024-01-25T01:17:31;100087.25;;;-0.22;65.93
74893;BME280;63446;56.272;43.922;2024-01-25T01:19:58;100095.03;;;-0.22;65.96
74893;BME280;63446;56.272;43.922;2024-01-25T01:22:23;100087.41;;;-0.24;65.98
74893;BME280;63446;56.272;43.922;2024-01-25T01:24:49;100083.03;;;-0.23;65.91
74893;BME280;63446;56.272;43.922;2024-01-25T01:27:16;100086.44;;;-0.23;65.95
74893;BME280;63446;56.272;43.922;2024-01-25T01:29:42;100083.84;;;-0.23;65.90
74893;BME280;63446;56.272;43.922;2024-01-25T01:32:08;100081.25;;;-0.23;65.84
74893;BME280;63446;56.272;43.922;2024-01-25T01:34:34;100079.63;;;-0.24;65.94
74893;BME280;63446;56.272;43.922;2024-01-25T01:37:00;100078.03;;;-0.25;65.84
74893;BME280;63446;56.272;43.922;2024-01-25T01:39:26;100078.25;;;-0.27;65.92
74893;BME280;63446;56.272;43.922;2024-01-25T01:41:52;100074.44;;;-0.24;65.84
74893;BME280;63446;56.272;43.922;2024-01-25T01:44:18;100074.84;;;-0.27;65.99
74893;BME280;63446;56.272;43.922;2024-01-25T01:46:44;100081.84;;;-0.28;65.91
74893;BME280;63446;56.272;43.922;2024-01-25T01:49:12;100076.66;;;-0.28;65.88
74893;BME280;63446;56.272;43.922;2024-01-25T01:51:38;100075.06;;;-0.29;65.94
74893;BME280;63446;56.272;43.922;2024-01-25T01:54:06;100073.25;;;-0.28;65.87
74893;BME280;63446;56.272;43.922;2024-01-25T01:56:33;100077.66;;;-0.29;65.80
74893;BME280;63446;56.272;43.922;2024-01-25T01:59:00;100078.66;;;-0.30;65.81
74893;BME280;63446;56.272;43.922;2024-01-25T02:01:27;100085.66;;;-0.30;65.93
74893;BME280;63446;56.272;43.922;2024-01-25T02:03:53;100079.47;;;-0.29;65.89
74893;BME280;63446;56.272;43.922;2024-01-25T02:06:19;100080.25;;;-0.29;65.93
74893;BME280;63446;56.272;43.922;2024-01-25T02:08:47;100078.66;;;-0.30;65.90
74893;BME280;63446;56.272;43.922;2024-01-25T02:11:14;100085.44;;;-0.29;65.87
74893;BME280;63446;56.272;43.922;2024-01-25T02:13:40;100076.84;;;-0.29;65.98
74893;BME280;63446;56.272;43.922;2024-01-25T02:16:07;100077.66;;;-0.29;65.89
74893;BME280;63446;56.272;43.922;2024-01-25T02:18:54;100073.25;;;-0.28;65.90
74893;BME280;63446;56.272;43.922;2024-01-25T02:21:23;100080.25;;;-0.29;65.74
74893;BME280;63446;56.272;43.922;2024-01-25T02:23:50;100080.47;;;-0.30;65.84
74893;BME280;63446;56.272;43.922;2024-01-25T02:26:15;100082.84;;;-0.29;65.73
74893;BME280;63446;56.272;43.922;2024-01-25T02:28:41;100081.03;;;-0.28;65.91
74893;BME280;63446;56.272;43.922;2024-01-25T02:31:08;100083.63;;;-0.28;65.83
74893;BME280;63446;56.272;43.922;2024-01-25T02:33:34;100082.63;;;-0.27;65.97
74893;BME280;63446;56.272;43.922;2024-01-25T02:35:59;100080.03;;;-0.27;65.92
74893;BME280;63446;56.272;43.922;2024-01-25T02:38:25;100074.84;;;-0.27;65.98
74893;BME280;63446;56.272;43.922;2024-01-25T02:40:52;100079.44;;;-0.22;65.93
74893;BME280;63446;56.272;43.922;2024-01-25T02:43:19;100076.06;;;-0.23;65.91
74893;BME280;63446;56.272;43.922;2024-01-25T02:45:46;100080.44;;;-0.23;65.80
74893;BME280;63446;56.272;43.922;2024-01-25T02:48:14;100075.44;;;-0.25;65.83
74893;BME280;63446;56.272;43.922;2024-01-25T02:50:40;100079.63;;;-0.24;65.85
74893;BME280;63446;56.272;43.922;2024-01-25T02:53:07;100075.44;;;-0.25;65.88
74893;BME280;63446;56.272;43.922;2024-01-25T02:55:33;100084.03;;;-0.25;65.76
74893;BME280;63446;56.272;43.922;2024-01-25T02:58:00;100083.25;;;-0.25;65.76
74893;BME280;63446;56.272;43.922;2024-01-25T03:00:27;100082.44;;;-0.26;65.68
74893;BME280;63446;56.272;43.922;2024-01-25T03:02:53;100085.63;;;-0.23;65.77
74893;BME280;63446;56.272;43.922;2024-01-25T03:05:19;100085.84;;;-0.25;65.65
74893;BME280;63446;56.272;43.922;2024-01-25T03:07:44;100081.25;;;-0.23;65.87
74893;BME280;63446;56.272;43.922;2024-01-25T03:10:11;100083.63;;;-0.21;65.76
74893;BME280;63446;56.272;43.922;2024-01-25T03:12:37;100078.44;;;-0.21;65.69
74893;BME280;63446;56.272;43.922;2024-01-25T03:15:04;100080.25;;;-0.22;65.75
74893;BME280;63446;56.272;43.922;2024-01-25T03:17:31;100091.22;;;-0.20;65.84
74893;BME280;63446;56.272;43.922;2024-01-25T03:19:57;100088.59;;;-0.20;65.76
74893;BME280;63446;56.272;43.922;2024-01-25T03:22:23;100089.41;;;-0.19;65.74
74893;BME280;63446;56.272;43.922;2024-01-25T03:24:50;100080.63;;;-0.18;65.85
74893;BME280;63446;56.272;43.922;2024-01-25T03:27:15;100086.00;;;-0.20;65.73
74893;BME280;63446;56.272;43.922;2024-01-25T03:29:42;100081.63;;;-0.19;65.77
74893;BME280;63446;56.272;43.922;2024-01-25T03:32:11;100090.22;;;-0.19;65.69
74893;BME280;63446;56.272;43.922;2024-01-25T03:34:36;100084.44;;;-0.21;65.74
74893;BME280;63446;56.272;43.922;2024-01-25T03:37:02;100073.25;;;-0.21;65.76
74893;BME280;63446;56.272;43.922;2024-01-25T03:39:29;100075.03;;;-0.22;65.86
74893;BME280;63446;56.272;43.922;2024-01-25T03:41:55;100080.25;;;-0.22;65.91
74893;BME280;63446;56.272;43.922;2024-01-25T03:44:20;100069.06;;;-0.22;65.90
74893;BME280;63446;56.272;43.922;2024-01-25T03:46:46;100071.66;;;-0.22;65.75
74893;BME280;63446;56.272;43.922;2024-01-25T03:49:12;100065.66;;;-0.23;65.79
74893;BME280;63446;56.272;43.922;2024-01-25T03:51:38;100060.47;;;-0.23;65.74
74893;BME280;63446;56.272;43.922;2024-01-25T03:54:04;100059.25;;;-0.27;65.74
74893;BME280;63446;56.272;43.922;2024-01-25T03:56:29;100067.88;;;-0.27;65.64
74893;BME280;63446;56.272;43.922;2024-01-25T03:58:55;100056.66;;;-0.27;65.76
74893;BME280;63446;56.272;43.922;2024-01-25T04:01:21;100059.47;;;-0.29;65.67
74893;BME280;63446;56.272;43.922;2024-01-25T04:03:47;100062.06;;;-0.29;65.68
74893;BME280;63446;56.272;43.922;2024-01-25T04:06:13;100061.28;;;-0.29;65.75
74893;BME280;63446;56.272;43.922;2024-01-25T04:08:39;100065.69;;;-0.30;65.78
74893;BME280;63446;56.272;43.922;2024-01-25T04:11:05;100055.28;;;-0.30;65.65
74893;BME280;63446;56.272;43.922;2024-01-25T04:13:31;100054.28;;;-0.29;65.67
74893;BME280;63446;56.272;43.922;2024-01-25T04:15:57;100057.69;;;-0.28;65.69
74893;BME280;63446;56.272;43.922;2024-01-25T04:18:22;100054.28;;;-0.29;65.80
74893;BME280;63446;56.272;43.922;2024-01-25T04:20:49;100048.06;;;-0.28;65.79
74893;BME280;63446;56.272;43.922;2024-01-25T04:23:16;100046.09;;;-0.26;65.78
74893;BME280;63446;56.272;43.922;2024-01-25T04:25:43;100051.28;;;-0.26;65.73
74893;BME280;63446;56.272;43.922;2024-01-25T04:28:09;100046.09;;;-0.26;65.75
74893;BME280;63446;56.272;43.922;2024-01-25T04:30:35;100048.69;;;-0.26;65.69
74893;BME280;63446;56.272;43.922;2024-01-25T04:33:02;100061.06;;;-0.28;65.70
74893;BME280;63446;56.272;43.922;2024-01-25T04:35:28;100063.66;;;-0.28;65.69
74893;BME280;63446;56.272;43.922;2024-01-25T04:37:54;100068.06;;;-0.28;65.76
74893;BME280;63446;56.272;43.922;2024-01-25T04:40:19;100064.66;;;-0.29;65.69
74893;BME280;63446;56.272;43.922;2024-01-25T04:42:45;100070.09;;;-0.30;65.71
74893;BME280;63446;56.272;43.922;2024-01-25T04:45:11;100061.28;;;-0.29;65.61
74893;BME280;63446;56.272;43.922;2024-01-25T04:47:38;100074.25;;;-0.29;65.66
74893;BME280;63446;56.272;43.922;2024-01-25T04:50:05;100071.66;;;-0.29;65.51
74893;BME280;63446;56.272;43.922;2024-01-25T04:52:33;100068.47;;;-0.31;65.56
74893;BME280;63446;56.272;43.922;2024-01-25T04:54:59;100063.09;;;-0.30;65.62
74893;BME280;63446;56.272;43.922;2024-01-25T04:57:25;100068.47;;;-0.31;65.62
74893;BME280;63446;56.272;43.922;2024-01-25T04:59:50;100071.66;;;-0.29;65.59
74893;BME280;63446;56.272;43.922;2024-01-25T05:02:16;100062.06;;;-0.29;65.41
74893;BME280;63446;56.272;43.922;2024-01-25T05:04:43;100063.28;;;-0.31;65.43
74893;BME280;63446;56.272;43.922;2024-01-25T05:07:09;100067.66;;;-0.32;65.40
74893;BME280;63446;56.272;43.922;2024-01-25T05:09:34;100062.47;;;-0.32;65.26
74893;BME280;63446;56.272;43.922;2024-01-25T05:12:00;100072.06;;;-0.32;65.45
74893;BME280;63446;56.272;43.922;2024-01-25T05:14:27;100066.09;;;-0.33;65.37
74893;BME280;63446;56.272;43.922;2024-01-25T05:16:53;100061.69;;;-0.32;65.42
74893;BME280;63446;56.272;43.922;2024-01-25T05:19:19;100055.47;;;-0.31;65.37
74893;BME280;63446;56.272;43.922;2024-01-25T05:21:45;100054.50;;;-0.30;65.41
74893;BME280;63446;56.272;43.922;2024-01-25T05:24:12;100057.28;;;-0.32;65.38
74893;BME280;63446;56.272;43.922;2024-01-25T05:26:37;100064.09;;;-0.31;65.39
74893;BME280;63446;56.272;43.922;2024-01-25T05:29:04;100060.69;;;-0.31;65.33
74893;BME280;63446;56.272;43.922;2024-01-25T05:31:30;100053.91;;;-0.32;65.48
74893;BME280;63446;56.272;43.922;2024-01-25T05:33:55;100065.69;;;-0.30;65.36
74893;BME280;63446;56.272;43.922;2024-01-25T05:36:21;100071.44;;;-0.28;65.30
74893;BME280;63446;56.272;43.922;2024-01-25T05:38:47;100077.44;;;-0.27;65.32
74893;BME280;63446;56.272;43.922;2024-01-25T05:41:13;100076.47;;;-0.26;65.14
74893;BME280;63446;56.272;43.922;2024-01-25T05:43:39;100072.84;;;-0.25;65.22
74893;BME280;63446;56.272;43.922;2024-01-25T05:46:05;100067.66;;;-0.25;65.33
74893;BME280;63446;56.272;43.922;2024-01-25T05:48:31;100070.03;;;-0.23;65.23
74893;BME280;63446;56.272;43.922;2024-01-25T05:50:57;100081.25;;;-0.23;65.30
74893;BME280;63446;56.272;43.922;2024-01-25T05:53:23;100075.84;;;-0.21;65.20
74893;BME280;63446;56.272;43.922;2024-01-25T05:55:49;100082.63;;;-0.20;65.07
74893;BME280;63446;56.272;43.922;2024-01-25T05:58:14;100079.00;;;-0.19;64.95
74893;BME280;63446;56.272;43.922;2024-01-25T06:00:42;100079.22;;;-0.21;64.95
74893;BME280;63446;56.272;43.922;2024-01-25T06:03:08;100072.44;;;-0.22;64.91
74893;BME280;63446;56.272;43.922;2024-01-25T06:05:34;100076.63;;;-0.21;64.91
74893;BME280;63446;56.272;43.922;2024-01-25T06:08:00;100080.03;;;-0.20;64.93
74893;BME280;63446;56.272;43.922;2024-01-25T06:10:26;100079.63;;;-0.17;64.97
74893;BME280;63446;56.272;43.922;2024-01-25T06:12:52;100075.22;;;-0.17;64.99
74893;BME280;63446;56.272;43.922;2024-01-25T06:15:17;100078.44;;;-0.15;64.90
74893;BME280;63446;56.272;43.922;2024-01-25T06:17:43;100076.63;;;-0.14;64.79
74893;BME280;63446;56.272;43.922;2024-01-25T06:20:09;100082.38;;;-0.12;64.79
74893;BME280;63446;56.272;43.922;2024-01-25T06:22:38;100084.81;;;-0.11;64.77
74893;BME280;63446;56.272;43.922;2024-01-25T06:25:04;100082.00;;;-0.09;64.69
74893;BME280;63446;56.272;43.922;2024-01-25T06:27:31;100084.41;;;-0.08;64.63
74893;BME280;63446;56.272;43.922;2024-01-25T06:29:57;100080.00;;;-0.07;64.60
74893;BME280;63446;56.272;43.922;2024-01-25T06:32:23;100087.56;;;-0.06;64.57
74893;BME280;63446;56.272;43.922;2024-01-25T06:34:48;100083.97;;;-0.05;64.48
74893;BME280;63446;56.272;43.922;2024-01-25T06:37:14;100090.78;;;-0.04;64.47
74893;BME280;63446;56.272;43.922;2024-01-25T06:39:41;100093.94;;;-0.02;64.44
74893;BME280;63446;56.272;43.922;2024-01-25T06:42:07;100088.56;;;0.00;64.46
74893;BME280;63446;56.272;43.922;2024-01-25T06:44:33;100093.16;;;0.05;64.47
74893;BME280;63446;56.272;43.922;2024-01-25T06:46:59;100084.91;;;0.08;64.38
74893;BME280;63446;56.272;43.922;2024-01-25T06:49:25;100088.91;;;0.10;64.58
74893;BME280;63446;56.272;43.922;2024-01-25T06:51:50;100087.50;;;0.14;64.38
74893;BME280;63446;56.272;43.922;2024-01-25T06:54:17;100088.88;;;0.17;64.23
74893;BME280;63446;56.272;43.922;2024-01-25T06:56:43;100090.47;;;0.18;64.21
74893;BME280;63446;56.272;43.922;2024-01-25T06:59:08;100085.09;;;0.19;64.23
74893;BME280;63446;56.272;43.922;2024-01-25T07:01:34;100089.84;;;0.22;64.20
74893;BME280;63446;56.272;43.922;2024-01-25T07:04:00;100092.25;;;0.24;64.07
74893;BME280;63446;56.272;43.922;2024-01-25T07:06:26;100092.66;;;0.28;64.05
74893;BME280;63446;56.272;43.922;2024-01-25T07:08:52;100098.63;;;0.28;64.02
74893;BME280;63446;56.272;43.922;2024-01-25T07:11:19;100097.41;;;0.31;63.91
74893;BME280;63446;56.272;43.922;2024-01-25T07:13:45;100098.81;;;0.33;63.93
74893;BME280;63446;56.272;43.922;2024-01-25T07:16:11;100087.41;;;0.34;63.80
74893;BME280;63446;56.272;43.922;2024-01-25T07:18:37;100085.41;;;0.36;63.64
74893;BME280;63446;56.272;43.922;2024-01-25T07:21:03;100090.97;;;0.40;63.72
74893;BME280;63446;56.272;43.922;2024-01-25T07:23:33;100094.97;;;0.42;63.77
74893;BME280;63446;56.272;43.922;2024-01-25T07:25:59;100090.13;;;0.46;63.72
74893;BME280;63446;56.272;43.922;2024-01-25T07:28:25;100097.31;;;0.51;63.65
74893;BME280;63446;56.272;43.922;2024-01-25T07:30:51;100092.50;;;0.54;63.63
74893;BME280;63446;56.272;43.922;2024-01-25T07:33:17;100091.28;;;0.57;63.70
74893;BME280;63446;56.272;43.922;2024-01-25T07:35:43;100094.47;;;0.59;63.56
74893;BME280;63446;56.272;43.922;2024-01-25T07:38:12;100090.88;;;0.60;63.45
74893;BME280;63446;56.272;43.922;2024-01-25T07:40:38;100099.47;;;0.60;63.52
74893;BME280;63446;56.272;43.922;2024-01-25T07:43:03;100098.09;;;0.58;63.25
74893;BME280;63446;56.272;43.922;2024-01-25T07:45:31;100087.47;;;0.59;63.27
74893;BME280;63446;56.272;43.922;2024-01-25T07:47:57;100089.66;;;0.62;63.22
74893;BME280;63446;56.272;43.922;2024-01-25T07:50:23;100095.44;;;0.64;63.13
74893;BME280;63446;56.272;43.922;2024-01-25T07:52:49;100105.41;;;0.67;63.04
74893;BME280;63446;56.272;43.922;2024-01-25T07:55:16;100104.78;;;0.72;63.18
74893;BME280;63446;56.272;43.922;2024-01-25T07:57:42;100110.59;;;0.74;62.96
74893;BME280;63446;56.272;43.922;2024-01-25T08:00:08;100108.97;;;0.73;62.84
74893;BME280;63446;56.272;43.922;2024-01-25T08:02:36;100097.16;;;0.77;62.77
74893;BME280;63446;56.272;43.922;2024-01-25T08:05:02;100095.75;;;0.81;62.76
74893;BME280;63446;56.272;43.922;2024-01-25T08:07:30;100098.34;;;0.81;62.61
74893;BME280;63446;56.272;43.922;2024-01-25T08:09:56;100103.09;;;0.84;62.61
74893;BME280;63446;56.272;43.922;2024-01-25T08:12:24;100100.09;;;0.87;62.71
74893;BME280;63446;56.272;43.922;2024-01-25T08:14:51;100102.28;;;0.90;62.49
74893;BME280;63446;56.272;43.922;2024-01-25T08:17:17;100101.06;;;0.93;62.58
74893;BME280;63446;56.272;43.922;2024-01-25T08:19:43;100093.03;;;0.94;62.27
74893;BME280;63446;56.272;43.922;2024-01-25T08:22:10;100099.41;;;0.98;62.33
74893;BME280;63446;56.272;43.922;2024-01-25T08:24:35;100091.59;;;0.98;62.16
74893;BME280;63446;56.272;43.922;2024-01-25T08:27:01;100093.00;;;1.01;62.25
74893;BME280;63446;56.272;43.922;2024-01-25T08:29:27;100097.56;;;1.06;62.21
74893;BME280;63446;56.272;43.922;2024-01-25T08:31:53;100092.94;;;1.08;62.10
74893;BME280;63446;56.272;43.922;2024-01-25T08:34:19;100100.53;;;1.09;62.11
74893;BME280;63446;56.272;43.922;2024-01-25T08:36:47;100100.09;;;1.12;61.89
74893;BME280;63446;56.272;43.922;2024-01-25T08:39:13;100097.88;;;1.16;61.82
74893;BME280;63446;56.272;43.922;2024-01-25T08:41:41;100100.03;;;1.19;61.74
74893;BME280;63446;56.272;43.922;2024-01-25T08:44:08;100101.66;;;1.20;61.42
74893;BME280;63446;56.272;43.922;2024-01-25T08:46:35;100098.03;;;1.21;61.43
74893;BME280;63446;56.272;43.922;2024-01-25T08:49:01;100100.63;;;1.21;61.38
74893;BME280;63446;56.272;43.922;2024-01-25T08:51:34;100095.78;;;1.25;61.44
74893;BME280;63446;56.272;43.922;2024-01-25T08:53:59;100092.78;;;1.28;61.45
74893;BME280;63446;56.272;43.922;2024-01-25T08:56:26;100093.16;;;1.31;61.47
74893;BME280;63446;56.272;43.922;2024-01-25T08:58:52;100097.91;;;1.34;61.38
74893;BME280;63446;56.272;43.922;2024-01-25T09:01:18;100107.31;;;1.35;61.48
74893;BME280;63446;56.272;43.922;2024-01-25T09:03:44;100102.91;;;1.36;61.24
74893;BME280;63446;56.272;43.922;2024-01-25T09:06:10;100103.69;;;1.36;61.04
74893;BME280;63446;56.272;43.922;2024-01-25T09:08:36;100096.69;;;1.37;61.01
74893;BME280;63446;56.272;43.922;2024-01-25T09:11:02;100094.31;;;1.35;61.07
74893;BME280;63446;56.272;43.922;2024-01-25T09:13:28;100088.31;;;1.35;60.90
74893;BME280;63446;56.272;43.922;2024-01-25T09:15:56;100090.69;;;1.36;60.95
74893;BME280;63446;56.272;43.922;2024-01-25T09:18:21;100089.91;;;1.36;60.87
74893;BME280;63446;56.272;43.922;2024-01-25T09:20:47;100096.47;;;1.38;61.03
74893;BME280;63446;56.272;43.922;2024-01-25T09:23:14;100095.47;;;1.39;60.92
74893;BME280;63446;56.272;43.922;2024-01-25T09:25:44;100092.44;;;1.42;60.78
74893;BME280;63446;56.272;43.922;2024-01-25T09:28:10;100106.81;;;1.45;60.74
74893;BME280;63446;56.272;43.922;2024-01-25T09:30:39;100096.22;;;1.46;60.66
74893;BME280;63446;56.272;43.922;2024-01-25T09:33:06;100097.78;;;1.48;60.57
74893;BME280;63446;56.272;43.922;2024-01-25T09:35:32;100089.97;;;1.48;60.67
74893;BME280;63446;56.272;43.922;2024-01-25T09:37:58;100095.75;;;1.50;60.54
74893;BME280;63446;56.272;43.922;2024-01-25T09:40:24;100093.97;;;1.50;60.49
74893;BME280;63446;56.272;43.922;2024-01-25T09:42:52;100094.78;;;1.51;60.50
74893;BME280;63446;56.272;43.922;2024-01-25T09:45:19;100103.38;;;1.51;60.46
74893;BME280;63446;56.272;43.922;2024-01-25T09:47:45;100101.78;;;1.50;60.21
74893;BME280;63446;56.272;43.922;2024-01-25T09:50:12;100099.38;;;1.49;60.26
74893;BME280;63446;56.272;43.922;2024-01-25T09:52:38;100098.59;;;1.48;60.28
74893;BME280;63446;56.272;43.922;2024-01-25T09:55:06;100102.41;;;1.45;60.37
74893;BME280;63446;56.272;43.922;2024-01-25T09:57:35;100101.63;;;1.45;60.28
74893;BME280;63446;56.272;43.922;2024-01-25T10:00:05;100098.44;;;1.43;60.35
74893;BME280;63446;56.272;43.922;2024-01-25T10:02:38;100089.28;;;1.34;60.19
74893;BME280;63446;56.272;43.922;2024-01-25T10:05:04;100093.28;;;1.36;60.24
74893;BME280;63446;56.272;43.922;2024-01-25T10:07:44;100097.91;;;1.34;60.32
74893;BME280;63446;56.272;43.922;2024-01-25T10:10:12;100090.31;;;1.33;60.45
74893;BME280;63446;56.272;43.922;2024-01-25T10:12:41;100090.31;;;1.33;60.04
74893;BME280;63446;56.272;43.922;2024-01-25T10:15:09;100095.16;;;1.29;60.17
74893;BME280;63446;56.272;43.922;2024-01-25T10:17:36;100091.97;;;1.27;60.21
74893;BME280;63446;56.272;43.922;2024-01-25T10:20:05;100089.16;;;1.29;60.28
74893;BME280;63446;56.272;43.922;2024-01-25T10:22:38;100081.34;;;1.29;60.25
74893;BME280;63446;56.272;43.922;2024-01-25T10:25:12;100089.75;;;1.31;60.20
74893;BME280;63446;56.272;43.922;2024-01-25T10:27:39;100094.72;;;1.32;60.25
74893;BME280;63446;56.272;43.922;2024-01-25T10:30:10;100089.53;;;1.32;60.15
74893;BME280;63446;56.272;43.922;2024-01-25T10:32:36;100094.31;;;1.35;60.22
74893;BME280;63446;56.272;43.922;2024-01-25T10:35:03;100098.28;;;1.38;60.08
74893;BME280;63446;56.272;43.922;2024-01-25T10:37:30;100102.25;;;1.40;60.10
74893;BME280;63446;56.272;43.922;2024-01-25T10:39:57;100099.44;;;1.42;60.10
74893;BME280;63446;56.272;43.922;2024-01-25T10:42:25;100095.63;;;1.44;60.09
74893;BME280;63446;56.272;43.922;2024-01-25T10:44:52;100091.19;;;1.45;59.88
74893;BME280;63446;56.272;43.922;2024-01-25T10:47:18;100090.63;;;1.43;59.95
74893;BME280;63446;56.272;43.922;2024-01-25T10:49:46;100086.78;;;1.45;60.01
74893;BME280;63446;56.272;43.922;2024-01-25T10:52:12;100084.19;;;1.45;59.85
74893;BME280;63446;56.272;43.922;2024-01-25T10:54:39;100087.00;;;1.44;59.94
74893;BME280;63446;56.272;43.922;2024-01-25T10:57:05;100092.22;;;1.44;59.92
74893;BME280;63446;56.272;43.922;2024-01-25T10:59:32;100094.03;;;1.43;59.86
74893;BME280;63446;56.272;43.922;2024-01-25T11:02:00;100097.06;;;1.40;59.88
74893;BME280;63446;56.272;43.922;2024-01-25T11:04:26;100098.28;;;1.38;59.73
74893;BME280;63446;56.272;43.922;2024-01-25T11:06:52;100097.09;;;1.34;59.77
74893;BME280;63446;56.272;43.922;2024-01-25T11:09:20;100096.75;;;1.30;59.83
74893;BME280;63446;56.272;43.922;2024-01-25T11:11:48;100096.16;;;1.28;59.94
74893;BME280;63446;56.272;43.922;2024-01-25T11:14:18;100104.19;;;1.27;59.89
74893;BME280;63446;56.272;43.922;2024-01-25T11:16:45;100105.41;;;1.24;59.76
74893;BME280;63446;56.272;43.922;2024-01-25T11:19:20;100098.03;;;1.21;59.88
74893;BME280;63446;56.272;43.922;2024-01-25T11:21:50;100093.47;;;1.16;60.00
74893;BME280;63446;56.272;43.922;2024-01-25T11:24:23;100098.06;;;1.14;59.93
74893;BME280;63446;56.272;43.922;2024-01-25T11:26:54;100101.09;;;1.11;60.06
74893;BME280;63446;56.272;43.922;2024-01-25T11:29:21;100106.53;;;1.10;60.07
74893;BME280;63446;56.272;43.922;2024-01-25T11:31:49;100103.34;;;1.08;60.21
74893;BME280;63446;56.272;43.922;2024-01-25T11:34:16;100107.97;;;1.06;60.25
74893;BME280;63446;56.272;43.922;2024-01-25T11:36:45;100118.59;;;1.04;60.22
74893;BME280;63446;56.272;43.922;2024-01-25T11:39:12;100117.56;;;1.05;60.13
74893;BME280;63446;56.272;43.922;2024-01-25T11:41:39;100108.38;;;1.03;60.12
74893;BME280;63446;56.272;43.922;2024-01-25T11:44:04;100107.59;;;1.02;60.19
74893;BME280;63446;56.272;43.922;2024-01-25T11:46:31;100105.78;;;1.03;60.25
74893;BME280;63446;56.272;43.922;2024-01-25T11:49:00;100113.59;;;1.03;60.24
74893;BME280;63446;56.272;43.922;2024-01-25T11:51:27;100121.81;;;1.00;60.09
74893;BME280;63446;56.272;43.922;2024-01-25T11:53:53;100113.44;;;0.97;60.16
74893;BME280;63446;56.272;43.922;2024-01-25T11:56:28;100114.63;;;0.95;60.19
74893;BME280;63446;56.272;43.922;2024-01-25T11:58:56;100116.44;;;0.94;60.32
74893;BME280;63446;56.272;43.922;2024-01-25T12:01:24;100112.91;;;0.89;60.15
74893;BME280;63446;56.272;43.922;2024-01-25T12:03:51;100119.09;;;0.88;60.32
74893;BME280;63446;56.272;43.922;2024-01-25T12:06:17;100108.31;;;0.84;60.40
74893;BME280;63446;56.272;43.922;2024-01-25T12:08:45;100118.72;;;0.84;60.35
74893;BME280;63446;56.272;43.922;2024-01-25T12:11:14;100117.13;;;0.83;60.44
74893;BME280;63446;56.272;43.922;2024-01-25T12:13:42;100115.94;;;0.79;60.31
74893;BME280;63446;56.272;43.922;2024-01-25T12:16:10;100112.97;;;0.76;60.33
74893;BME280;63446;56.272;43.922;2024-01-25T12:18:36;100121.00;;;0.74;60.46
74893;BME280;63446;56.272;43.922;2024-01-25T12:21:05;100125.59;;;0.72;60.46
74893;BME280;63446;56.272;43.922;2024-01-25T12:23:32;100127.63;;;0.70;60.60
74893;BME280;63446;56.272;43.922;2024-01-25T12:26:00;100118.03;;;0.64;60.52
74893;BME280;63446;56.272;43.922;2024-01-25T12:28:27;100123.66;;;0.61;60.61
74893;BME280;63446;56.272;43.922;2024-01-25T12:30:54;100124.88;;;0.58;60.81
74893;BME280;63446;56.272;43.922;2024-01-25T12:33:21;100125.50;;;0.54;60.83
74893;BME280;63446;56.272;43.922;2024-01-25T12:35:46;100123.91;;;0.53;60.88
74893;BME280;63446;56.272;43.922;2024-01-25T12:38:13;100130.34;;;0.50;60.97
74893;BME280;63446;56.272;43.922;2024-01-25T12:40:38;100118.53;;;0.47;61.06
74893;BME280;63446;56.272;43.922;2024-01-25T12:43:04;100129.72;;;0.48;61.17